createdAt,value
2018-03-18T00:01:03.739Z,97783.83
2018-03-18T00:03:31.309Z,97790.99
2018-03-18T00:05:58.895Z,97801.13
2018-03-18T00:08:26.973Z,97806.83
2018-03-18T00:10:54.543Z,97822.67
2018-03-18T00:13:22.984Z,97809.57
2018-03-18T00:15:50.617Z,97802.95
2018-03-18T00:18:18.552Z,97759.08
2018-03-18T00:20:46.952Z,97763.45
2018-03-18T00:23:14.495Z,97786.58
2018-03-18T00:25:42.101Z,97750.39
2018-03-18T00:28:09.641Z,97695.22
2018-03-18T00:30:37.192Z,97719.70
2018-03-18T00:33:04.776Z,97735.73
2018-03-18T00:35:32.373Z,97738.64
2018-03-18T00:37:59.955Z,97743.91
2018-03-18T00:40:27.494Z,97748.38
2018-03-18T00:42:55.076Z,97757.16
2018-03-18T00:45:22.673Z,97716.44
2018-03-18T00:47:50.284Z,97687.31
2018-03-18T00:50:17.835Z,97700.86
2018-03-18T00:52:46.293Z,97699.59
2018-03-18T00:55:13.839Z,97704.91
2018-03-18T00:57:41.834Z,97683.11
2018-03-18T01:00:09.384Z,97682.06
2018-03-18T01:02:36.972Z,97673.55
2018-03-18T01:05:04.511Z,97660.87
2018-03-18T01:07:32.477Z,97637.08
2018-03-18T01:10:00.435Z,97666.97
2018-03-18T01:12:27.991Z,97660.57
2018-03-18T01:14:55.580Z,97674.55
2018-03-18T01:17:23.128Z,97656.77
2018-03-18T01:19:50.721Z,97674.02
2018-03-18T01:22:18.259Z,97655.95
2018-03-18T01:24:45.853Z,97641.94
2018-03-18T01:27:13.399Z,97643.74
2018-03-18T01:29:41.009Z,97645.82
2018-03-18T01:32:08.563Z,97654.52
2018-03-18T01:34:36.147Z,97660.33
2018-03-18T01:37:03.699Z,97657.25
2018-03-18T01:39:31.287Z,97657.94
2018-03-18T01:41:58.845Z,97650.92
2018-03-18T01:44:26.431Z,97657.15
2018-03-18T01:46:54.020Z,97633.08
2018-03-18T01:49:21.619Z,97630.89
2018-03-18T01:51:49.162Z,97623.06
2018-03-18T01:54:16.747Z,97614.95
2018-03-18T01:56:44.760Z,97595.25
2018-03-18T01:59:12.299Z,97603.13
2018-03-18T02:01:40.391Z,97603.77
2018-03-18T02:04:07.982Z,97598.37
2018-03-18T02:06:35.532Z,97601.99
2018-03-18T02:09:03.155Z,97609.77
2018-03-18T02:11:30.748Z,97609.73
2018-03-18T02:13:58.338Z,97608.27
2018-03-18T02:16:25.888Z,97609.25
2018-03-18T02:18:53.487Z,97620.22
2018-03-18T02:21:21.028Z,97603.66
2018-03-18T02:23:48.570Z,97612.38
2018-03-18T02:26:16.700Z,97560.55
2018-03-18T02:28:44.247Z,97569.99
2018-03-18T02:31:11.835Z,97562.02
2018-03-18T02:33:39.564Z,97564.86
2018-03-18T02:36:07.128Z,97556.44
2018-03-18T02:38:34.737Z,97529.89
2018-03-18T02:41:02.871Z,97555.90
2018-03-18T02:43:30.420Z,97540.20
2018-03-18T02:45:57.988Z,97539.41
2018-03-18T02:48:25.588Z,97543.62
2018-03-18T02:50:53.190Z,97535.12
2018-03-18T02:53:20.800Z,97549.09
2018-03-18T02:55:48.652Z,97525.85
2018-03-18T02:58:16.257Z,97528.74
2018-03-18T03:00:44.384Z,97526.64
2018-03-18T03:03:11.991Z,97507.08
2018-03-18T03:05:39.538Z,97522.92
2018-03-18T03:08:07.136Z,97514.38
2018-03-18T03:10:34.739Z,97513.92
2018-03-18T03:13:02.894Z,97514.92
2018-03-18T03:15:30.453Z,97502.50
2018-03-18T03:17:58.420Z,97503.51
2018-03-18T03:20:26.031Z,97497.59
2018-03-18T03:22:53.595Z,97489.84
2018-03-18T03:25:21.189Z,97500.11
2018-03-18T03:27:48.755Z,97459.12
2018-03-18T03:30:16.353Z,97469.17
2018-03-18T03:32:43.916Z,97439.23
2018-03-18T03:35:11.511Z,97427.63
2018-03-18T03:37:39.103Z,97443.34
2018-03-18T03:40:06.867Z,97446.25
2018-03-18T03:42:34.656Z,97419.36
2018-03-18T03:45:02.221Z,97447.31
2018-03-18T03:47:29.837Z,97442.52
2018-03-18T03:49:57.393Z,97401.16
2018-03-18T03:52:24.983Z,97390.61
2018-03-18T03:54:52.582Z,97391.73
2018-03-18T03:57:20.129Z,97385.67
2018-03-18T03:59:48.534Z,97382.77
2018-03-18T04:02:16.392Z,97355.92
2018-03-18T04:04:45.288Z,97346.64
2018-03-18T04:07:12.864Z,97375.62
2018-03-18T04:09:40.462Z,97379.67
2018-03-18T04:12:08.992Z,97383.89
2018-03-18T04:14:37.249Z,97401.69
2018-03-18T04:17:04.857Z,97420.97
2018-03-18T04:19:33.004Z,97430.16
2018-03-18T04:22:00.556Z,97447.87
2018-03-18T04:24:28.153Z,97447.09
2018-03-18T04:26:55.703Z,97456.37
2018-03-18T04:29:23.320Z,97445.06
2018-03-18T04:31:50.871Z,97453.98
2018-03-18T04:34:18.468Z,97452.79
2018-03-18T04:36:46.026Z,97444.02
2018-03-18T04:39:13.626Z,97436.35
2018-03-18T04:41:41.622Z,97451.64
2018-03-18T04:44:09.227Z,97439.89
2018-03-18T04:46:36.783Z,97453.94
2018-03-18T04:49:05.183Z,97449.05
2018-03-18T04:51:32.749Z,97459.34
2018-03-18T04:54:01.277Z,97478.73
2018-03-18T04:56:28.884Z,97477.92
2018-03-18T04:58:56.552Z,97479.00
2018-03-18T05:01:24.157Z,97484.66
2018-03-18T05:03:51.708Z,97473.53
2018-03-18T05:06:19.684Z,97468.95
2018-03-18T05:08:48.040Z,97491.72
2018-03-18T05:11:15.987Z,97480.70
2018-03-18T05:13:43.588Z,97475.80
2018-03-18T05:16:11.193Z,97474.30
2018-03-18T05:18:38.750Z,97471.98
2018-03-18T05:21:06.353Z,97464.37
2018-03-18T05:23:33.916Z,97477.95
2018-03-18T05:26:01.521Z,97460.70
2018-03-18T05:28:29.084Z,97469.36
2018-03-18T05:30:57.140Z,97465.74
2018-03-18T05:33:24.768Z,97456.33
2018-03-18T05:35:52.328Z,97453.30
2018-03-18T05:38:20.674Z,97458.01
2018-03-18T05:40:48.227Z,97467.87
2018-03-18T05:43:15.844Z,97463.09
2018-03-18T05:45:43.435Z,97470.01
2018-03-18T05:48:10.982Z,97464.02
2018-03-18T05:50:39.150Z,97480.84
2018-03-18T05:53:06.696Z,97480.80
2018-03-18T05:55:34.283Z,97503.18
2018-03-18T05:58:02.145Z,97521.64
2018-03-18T06:00:29.764Z,97530.78
2018-03-18T06:02:57.481Z,97499.31
2018-03-18T06:05:25.088Z,97500.26
2018-03-18T06:07:53.304Z,97501.66
2018-03-18T06:10:20.913Z,97489.61
2018-03-18T06:12:49.005Z,97497.72
2018-03-18T06:15:18.278Z,97503.33
2018-03-18T06:17:46.211Z,97528.90
2018-03-18T06:20:13.812Z,97539.87
2018-03-18T06:22:41.953Z,97529.13
2018-03-18T06:25:10.516Z,97530.45
2018-03-18T06:27:38.107Z,97544.78
2018-03-18T06:30:06.079Z,97562.03
2018-03-18T06:32:33.723Z,97591.04
2018-03-18T06:35:08.989Z,97570.52
2018-03-18T06:37:36.997Z,97554.50
2018-03-18T06:40:04.562Z,97582.77
2018-03-18T06:42:32.159Z,97562.45
2018-03-18T06:44:59.755Z,97584.92
2018-03-18T06:47:27.365Z,97591.30
2018-03-18T06:49:54.995Z,97603.20
2018-03-18T06:52:22.600Z,97615.62
2018-03-18T06:54:50.191Z,97615.62
2018-03-18T06:57:17.756Z,97628.90
2018-03-18T06:59:45.316Z,97631.13
2018-03-18T07:02:12.907Z,97631.42
2018-03-18T07:04:40.468Z,97632.13
2018-03-18T07:07:08.072Z,97606.89
2018-03-18T07:09:35.856Z,97598.83
2018-03-18T07:12:03.483Z,97620.83
2018-03-18T07:14:31.605Z,97612.76
2018-03-18T07:16:59.456Z,97598.04
2018-03-18T07:19:27.017Z,97570.28
2018-03-18T07:21:55.153Z,97568.09
2018-03-18T07:24:23.246Z,97582.19
2018-03-18T07:26:50.803Z,97597.25
2018-03-18T07:29:18.468Z,97611.81
2018-03-18T07:31:46.028Z,97614.70
2018-03-18T07:34:13.633Z,97624.99
2018-03-18T07:36:41.192Z,97621.23
2018-03-18T07:39:08.802Z,97628.58
2018-03-18T07:41:36.410Z,97632.84
2018-03-18T07:44:04.471Z,97618.61
2018-03-18T07:46:32.024Z,97618.70
2018-03-18T07:48:59.629Z,97618.07
2018-03-18T07:51:27.200Z,97600.59
2018-03-18T07:53:54.819Z,97580.90
2018-03-18T07:56:22.386Z,97574.86
2018-03-18T07:58:50.797Z,97571.56
2018-03-18T08:01:18.347Z,97586.27
2018-03-18T08:03:46.744Z,97622.37
2018-03-18T08:06:14.299Z,97642.02
2018-03-18T08:08:41.865Z,97614.18
2018-03-18T08:11:09.451Z,97624.87
2018-03-18T08:13:37.062Z,97606.61
2018-03-18T08:16:05.027Z,97634.88
2018-03-18T08:18:32.628Z,97655.78
2018-03-18T08:21:02.175Z,97659.13
2018-03-18T08:23:29.776Z,97673.45
2018-03-18T08:25:58.210Z,97662.19
2018-03-18T08:28:25.805Z,97663.44
2018-03-18T08:30:53.937Z,97686.75
2018-03-18T08:33:21.533Z,97677.98
2018-03-18T08:35:49.603Z,97681.19
2018-03-18T08:38:17.696Z,97680.41
2018-03-18T08:40:45.605Z,97668.09
2018-03-18T08:43:13.214Z,97684.19
2018-03-18T08:45:40.845Z,97688.16
2018-03-18T08:48:08.416Z,97674.88
2018-03-18T08:50:36.196Z,97671.66
2018-03-18T08:53:04.040Z,97682.02
2018-03-18T08:55:31.658Z,97684.87
2018-03-18T08:57:59.823Z,97667.95
2018-03-18T09:00:27.420Z,97656.47
2018-03-18T09:02:56.005Z,97675.31
2018-03-18T09:05:24.492Z,97671.63
2018-03-18T09:07:53.925Z,97684.17
2018-03-18T09:10:21.488Z,97709.85
2018-03-18T09:12:49.081Z,97749.24
2018-03-18T09:15:17.258Z,97737.27
2018-03-18T09:17:44.861Z,97720.16
2018-03-18T09:20:13.089Z,97723.08
2018-03-18T09:22:41.030Z,97719.45
2018-03-18T09:25:08.632Z,97727.67
2018-03-18T09:27:36.686Z,97710.14
2018-03-18T09:30:04.312Z,97695.32
2018-03-18T09:32:32.729Z,97700.31
2018-03-18T09:35:00.284Z,97715.08
2018-03-18T09:37:27.866Z,97716.67
2018-03-18T09:39:55.421Z,97720.02
2018-03-18T09:42:23.003Z,97703.23
2018-03-18T09:44:50.846Z,97703.05
2018-03-18T09:47:18.717Z,97707.91
2018-03-18T09:49:46.323Z,97706.16
2018-03-18T09:52:14.371Z,97712.84
2018-03-18T09:54:42.279Z,97711.53
2018-03-18T09:57:10.787Z,97707.36
2018-03-18T09:59:38.378Z,97687.98
2018-03-18T10:02:06.873Z,97700.80
2018-03-18T10:04:35.118Z,97703.18
2018-03-18T10:07:04.060Z,97696.84
2018-03-18T10:09:31.653Z,97707.13
2018-03-18T10:12:00.053Z,97714.86
2018-03-18T10:14:27.606Z,97712.78
2018-03-18T10:16:55.192Z,97729.34
2018-03-18T10:19:23.420Z,97720.41
2018-03-18T10:21:51.373Z,97717.59
2018-03-18T10:24:19.596Z,97715.88
2018-03-18T10:26:48.000Z,97740.28
2018-03-18T10:29:15.597Z,97719.20
2018-03-18T10:31:43.885Z,97721.51
2018-03-18T10:34:12.230Z,97735.13
2018-03-18T10:36:39.820Z,97737.96
2018-03-18T10:39:07.677Z,97739.80
2018-03-18T10:41:36.618Z,97738.84
2018-03-18T10:44:04.868Z,97742.23
2018-03-18T10:46:33.414Z,97739.12
2018-03-18T10:49:00.969Z,97746.22
2018-03-18T10:51:28.552Z,97755.76
2018-03-18T10:53:56.615Z,97752.55
2018-03-18T10:56:24.208Z,97774.22
2018-03-18T10:58:51.747Z,97774.23
2018-03-18T11:01:25.628Z,97782.23
2018-03-18T11:03:58.934Z,97802.23
2018-03-18T11:06:26.539Z,97798.75
2018-03-18T11:08:56.383Z,97812.13
2018-03-18T11:11:24.184Z,97802.65
2018-03-18T11:13:52.235Z,97825.66
2018-03-18T11:16:19.857Z,97842.95
2018-03-18T11:18:47.985Z,97828.66
2018-03-18T11:21:15.575Z,97827.61
2018-03-18T11:23:43.156Z,97846.53
2018-03-18T11:26:10.752Z,97858.42
2018-03-18T11:28:38.358Z,97864.02
2018-03-18T11:31:07.580Z,97862.62
2018-03-18T11:33:35.177Z,97879.95
2018-03-18T11:36:03.136Z,97884.78
2018-03-18T11:38:32.204Z,97882.36
2018-03-18T11:40:59.803Z,97895.01
2018-03-18T11:43:28.078Z,97905.05
2018-03-18T11:45:55.619Z,97900.66
2018-03-18T11:48:24.529Z,97895.50
2018-03-18T11:50:52.080Z,97897.70
2018-03-18T11:53:19.695Z,97913.35
2018-03-18T11:55:47.304Z,97929.17
2018-03-18T11:58:14.921Z,97933.33
2018-03-18T12:00:42.538Z,97939.20
2018-03-18T12:03:10.132Z,97935.83
2018-03-18T12:05:37.692Z,97941.63
2018-03-18T12:08:06.153Z,97942.44
2018-03-18T12:10:35.014Z,97955.56
2018-03-18T12:13:03.332Z,97959.83
2018-03-18T12:15:30.879Z,97967.03
2018-03-18T12:17:59.699Z,97966.33
2018-03-18T12:20:27.645Z,97967.47
2018-03-18T12:22:55.233Z,97980.92
2018-03-18T12:25:24.058Z,97975.38
2018-03-18T12:27:51.867Z,97971.56
2018-03-18T12:30:19.467Z,97979.93
2018-03-18T12:32:47.051Z,97972.52
2018-03-18T12:35:14.650Z,97970.98
2018-03-18T12:37:42.396Z,97973.95
2018-03-18T12:40:21.556Z,97970.27
2018-03-18T12:43:01.077Z,97967.93
2018-03-18T12:45:29.516Z,97975.30
2018-03-18T12:47:57.116Z,97967.27
2018-03-18T12:50:25.183Z,97943.60
2018-03-18T12:52:53.372Z,97923.69
2018-03-18T12:55:20.973Z,97917.27
2018-03-18T12:57:48.541Z,97840.41
2018-03-18T13:00:16.083Z,97816.28
2018-03-18T13:02:44.165Z,97853.09
2018-03-18T13:05:11.768Z,97848.48
2018-03-18T13:07:39.336Z,97845.72
2018-03-18T13:10:06.937Z,97884.21
2018-03-18T13:12:34.510Z,97900.16
2018-03-18T13:15:02.067Z,97885.17
2018-03-18T13:17:29.992Z,97874.45
2018-03-18T13:19:57.590Z,97867.45
2018-03-18T13:22:25.145Z,97860.91
2018-03-18T13:24:52.751Z,97848.57
2018-03-18T13:27:20.321Z,97850.39
2018-03-18T13:29:47.918Z,97857.72
2018-03-18T13:32:15.480Z,97883.92
2018-03-18T13:34:43.878Z,97899.51
2018-03-18T13:37:11.434Z,97899.50
2018-03-18T13:39:39.805Z,97899.39
2018-03-18T13:42:08.355Z,97891.68
2018-03-18T13:44:38.354Z,97904.78
2018-03-18T13:47:05.925Z,97906.73
2018-03-18T13:49:33.545Z,97900.84
2018-03-18T13:52:01.101Z,97904.88
2018-03-18T13:54:28.760Z,97903.77
2018-03-18T13:56:56.464Z,97919.27
2018-03-18T13:59:24.055Z,97931.31
2018-03-18T14:01:51.620Z,97942.25
2018-03-18T14:04:19.203Z,97945.83
2018-03-18T14:06:47.600Z,97956.05
2018-03-18T14:09:15.311Z,97959.17
2018-03-18T14:11:42.910Z,97966.61
2018-03-18T14:14:10.472Z,97964.88
2018-03-18T14:16:38.850Z,97972.05
2018-03-18T14:19:06.871Z,97970.97
2018-03-18T14:21:34.441Z,97972.31
2018-03-18T14:24:03.277Z,97964.05
2018-03-18T14:26:30.876Z,97955.56
2018-03-18T14:28:58.466Z,97957.66
2018-03-18T14:31:27.001Z,97964.24
2018-03-18T14:33:54.587Z,97969.20
2018-03-18T14:36:22.188Z,97981.04
2018-03-18T14:38:49.748Z,97978.58
2018-03-18T14:41:17.336Z,97976.99
2018-03-18T14:43:44.945Z,97981.20
2018-03-18T14:46:14.254Z,97986.97
2018-03-18T14:48:42.066Z,97987.75
2018-03-18T14:51:09.616Z,97988.20
2018-03-18T14:53:37.207Z,97994.63
2018-03-18T14:56:05.577Z,97991.66
2018-03-18T14:58:33.177Z,97987.19
2018-03-18T15:01:00.734Z,97983.69
2018-03-18T15:03:28.356Z,97986.44
2018-03-18T15:05:55.908Z,97989.47
2018-03-18T15:08:23.484Z,97994.83
2018-03-18T15:10:51.068Z,98002.02
2018-03-18T15:13:19.329Z,97998.33
2018-03-18T15:15:46.918Z,98009.80
2018-03-18T15:18:15.658Z,98020.54
2018-03-18T15:20:43.270Z,98029.11
2018-03-18T15:23:10.829Z,98030.77
2018-03-18T15:25:38.830Z,98045.30
2018-03-18T15:28:06.424Z,98046.70
2018-03-18T15:30:34.695Z,98046.78
2018-03-18T15:33:03.249Z,98057.67
2018-03-18T15:35:31.036Z,98059.29
2018-03-18T15:37:58.620Z,98062.77
2018-03-18T15:40:27.545Z,98062.97
2018-03-18T15:42:55.814Z,98068.84
2018-03-18T15:45:24.857Z,98073.89
2018-03-18T15:47:53.461Z,98072.59
2018-03-18T15:50:24.613Z,98077.91
2018-03-18T15:52:52.394Z,98083.39
2018-03-18T15:55:19.944Z,98090.34
2018-03-18T15:57:47.528Z,98095.08
2018-03-18T16:00:15.732Z,98096.31
2018-03-18T16:02:43.456Z,98102.80
2018-03-18T16:05:11.126Z,98103.95
2018-03-18T16:07:38.678Z,98099.37
2018-03-18T16:10:07.222Z,98098.20
2018-03-18T16:12:35.061Z,98104.50
2018-03-18T16:15:03.044Z,98105.94
2018-03-18T16:17:31.015Z,98100.33
2018-03-18T16:19:59.703Z,98108.20
2018-03-18T16:22:27.240Z,98115.93
2018-03-18T16:24:55.830Z,98122.88
2018-03-18T16:27:24.298Z,98128.12
2018-03-18T16:30:03.807Z,98138.88
2018-03-18T16:32:32.656Z,98139.81
2018-03-18T16:35:00.199Z,98136.89
2018-03-18T16:37:28.722Z,98140.94
2018-03-18T16:39:56.316Z,98131.86
2018-03-18T16:42:23.928Z,98134.14
2018-03-18T16:44:51.502Z,98138.56
2018-03-18T16:47:19.503Z,98139.45
2018-03-18T16:49:47.947Z,98137.84
2018-03-18T16:52:16.270Z,98145.21
2018-03-18T16:54:45.624Z,98140.25
2018-03-18T16:57:14.462Z,98145.57
2018-03-18T16:59:42.617Z,98152.62
2018-03-18T17:02:10.858Z,98156.56
2018-03-18T17:04:39.582Z,98153.68
2018-03-18T17:07:09.059Z,98165.19
2018-03-18T17:09:37.437Z,98180.66
2018-03-18T17:12:09.811Z,98189.27
2018-03-18T17:14:39.104Z,98188.17
2018-03-18T17:17:09.635Z,98192.75
2018-03-18T17:19:38.891Z,98203.09
2018-03-18T17:22:08.845Z,98207.89
2018-03-18T17:24:37.558Z,98209.91
2018-03-18T17:27:05.887Z,98221.55
2018-03-18T17:29:34.776Z,98215.98
2018-03-18T17:32:03.069Z,98216.64
2018-03-18T17:34:32.277Z,98214.91
2018-03-18T17:37:01.037Z,98225.53
2018-03-18T17:39:30.675Z,98228.55
2018-03-18T17:41:59.400Z,98232.97
2018-03-18T17:44:40.982Z,98237.70
2018-03-18T17:47:21.819Z,98242.00
2018-03-18T17:50:02.521Z,98249.89
2018-03-18T17:52:44.067Z,98248.43
2018-03-18T17:55:26.272Z,98248.97
2018-03-18T17:57:55.372Z,98246.23
2018-03-18T18:00:24.562Z,98242.31
2018-03-18T18:02:53.068Z,98238.78
2018-03-18T18:05:23.162Z,98233.74
2018-03-18T18:07:52.458Z,98232.40
2018-03-18T18:10:21.454Z,98233.50
2018-03-18T18:12:50.452Z,98229.03
2018-03-18T18:15:19.373Z,98236.84
2018-03-18T18:17:48.388Z,98238.56
2018-03-18T18:20:17.380Z,98229.84
2018-03-18T18:22:47.574Z,98231.75
2018-03-18T18:25:16.897Z,98241.69
2018-03-18T18:27:46.984Z,98245.14
2018-03-18T18:30:15.879Z,98246.41
2018-03-18T18:32:46.634Z,98252.78
2018-03-18T18:35:15.294Z,98261.94
2018-03-18T18:37:43.896Z,98260.27
2018-03-18T18:40:13.619Z,98257.14
2018-03-18T18:42:46.538Z,98260.73
2018-03-18T18:45:15.276Z,98264.16
2018-03-18T18:47:44.297Z,98267.44
2018-03-18T18:50:13.022Z,98273.10
2018-03-18T18:52:41.637Z,98277.73
2018-03-18T18:55:14.257Z,98280.34
2018-03-18T18:57:43.155Z,98280.55
2018-03-18T19:00:12.364Z,98281.33
2018-03-18T19:02:41.912Z,98277.98
2018-03-18T19:05:10.333Z,98286.37
2018-03-18T19:07:39.699Z,98283.74
2018-03-18T19:10:08.948Z,98284.42
2018-03-18T19:12:39.097Z,98282.52
2018-03-18T19:15:09.396Z,98287.91
2018-03-18T19:17:38.692Z,98303.03
2018-03-18T19:20:07.738Z,98316.60
2018-03-18T19:22:36.782Z,98319.14
2018-03-18T19:25:05.679Z,98319.34
2018-03-18T19:27:34.053Z,98323.50
2018-03-18T19:30:04.277Z,98318.13
2018-03-18T19:32:34.444Z,98313.36
2018-03-18T19:35:03.284Z,98323.11
2018-03-18T19:37:32.475Z,98328.89
2018-03-18T19:40:01.312Z,98330.02
2018-03-18T19:42:30.151Z,98333.92
2018-03-18T19:44:59.643Z,98334.80
2018-03-18T19:47:29.682Z,98326.81
2018-03-18T19:49:58.696Z,98327.84
2018-03-18T19:52:27.376Z,98327.33
2018-03-18T19:54:56.083Z,98326.92
2018-03-18T19:57:24.726Z,98337.08
2018-03-18T19:59:55.251Z,98348.93
2018-03-18T20:02:23.839Z,98344.25
2018-03-18T20:04:52.931Z,98342.98
2018-03-18T20:07:22.229Z,98329.31
2018-03-18T20:09:51.892Z,98326.33
2018-03-18T20:12:20.828Z,98334.14
2018-03-18T20:14:50.030Z,98332.28
2018-03-18T20:17:18.532Z,98342.88
2018-03-18T20:19:48.369Z,98339.61
2018-03-18T20:22:16.986Z,98353.50
2018-03-18T20:24:45.514Z,98351.88
2018-03-18T20:27:14.470Z,98361.45
2018-03-18T20:29:42.676Z,98365.08
2018-03-18T20:32:11.541Z,98375.27
2018-03-18T20:34:40.846Z,98380.31
2018-03-18T20:37:09.768Z,98382.84
2018-03-18T20:39:38.517Z,98381.97
2018-03-18T20:42:07.203Z,98381.24
2018-03-18T20:44:35.886Z,98388.17
2018-03-18T20:47:04.832Z,98389.02
2018-03-18T20:49:33.584Z,98394.63
2018-03-18T20:52:03.471Z,98394.88
2018-03-18T20:54:32.627Z,98394.19
2018-03-18T20:57:00.768Z,98391.55
2018-03-18T20:59:29.229Z,98402.97
2018-03-18T21:01:57.912Z,98405.59
2018-03-18T21:04:26.291Z,98407.16
2018-03-18T21:06:56.110Z,98405.47
2018-03-18T21:09:24.478Z,98410.48
2018-03-18T21:11:52.538Z,98407.33
2018-03-18T21:14:20.423Z,98415.73
2018-03-18T21:16:48.053Z,98406.44
2018-03-18T21:19:16.104Z,98400.84
2018-03-18T21:21:45.017Z,98401.11
2018-03-18T21:24:13.154Z,98402.36
2018-03-18T21:26:41.208Z,98397.91
2018-03-18T21:29:09.727Z,98397.37
2018-03-18T21:31:37.353Z,98402.01
2018-03-18T21:34:05.708Z,98405.54
2018-03-18T21:36:33.710Z,98410.54
2018-03-18T21:39:01.301Z,98406.86
2018-03-18T21:41:28.901Z,98411.02
2018-03-18T21:43:57.109Z,98405.95
2018-03-18T21:46:24.691Z,98413.71
2018-03-18T21:48:52.689Z,98416.50
2018-03-18T21:51:20.289Z,98416.55
2018-03-18T21:53:47.869Z,98418.17
2018-03-18T21:56:15.474Z,98416.31
2018-03-18T21:58:43.578Z,98420.66
2018-03-18T22:01:11.168Z,98423.17
2018-03-18T22:03:38.721Z,98414.28
2018-03-18T22:06:06.314Z,98401.80
2018-03-18T22:08:33.910Z,98399.91
2018-03-18T22:11:01.500Z,98416.49
2018-03-18T22:13:29.072Z,98412.38
2018-03-18T22:15:56.661Z,98417.17
2018-03-18T22:18:24.206Z,98417.87
2018-03-18T22:20:51.954Z,98426.75
2018-03-18T22:23:19.661Z,98431.87
2018-03-18T22:25:47.752Z,98430.41
2018-03-18T22:28:15.335Z,98426.34
2018-03-18T22:30:43.523Z,98428.97
2018-03-18T22:33:11.100Z,98430.30
2018-03-18T22:35:38.644Z,98434.87
2018-03-18T22:38:06.244Z,98432.50
2018-03-18T22:40:34.040Z,98437.70
2018-03-18T22:43:02.441Z,98451.20
2018-03-18T22:45:30.247Z,98448.30
2018-03-18T22:47:58.136Z,98450.08
2018-03-18T22:50:25.711Z,98445.91
2018-03-18T22:52:53.321Z,98440.96
2018-03-18T22:55:20.903Z,98444.12
2018-03-18T22:57:48.444Z,98447.92
2018-03-18T23:00:18.895Z,98450.58
2018-03-18T23:02:46.439Z,98449.54
2018-03-18T23:05:14.044Z,98440.70
2018-03-18T23:07:41.870Z,98438.78
2018-03-18T23:10:10.036Z,98446.27
2018-03-18T23:12:37.648Z,98448.34
2018-03-18T23:15:05.422Z,98448.84
2018-03-18T23:17:33.323Z,98454.50
2018-03-18T23:20:00.869Z,98452.66
2018-03-18T23:22:28.468Z,98455.84
2018-03-18T23:24:56.016Z,98454.65
2018-03-18T23:27:23.563Z,98448.55
2018-03-18T23:29:51.139Z,98456.14
2018-03-18T23:32:18.675Z,98449.72
2018-03-18T23:34:46.250Z,98455.25
2018-03-18T23:37:13.835Z,98466.39
2018-03-18T23:39:41.428Z,98460.55
2018-03-18T23:42:09.020Z,98450.44
2018-03-18T23:44:36.623Z,98452.17
2018-03-18T23:47:04.185Z,98461.72
2018-03-18T23:49:31.731Z,98451.90
2018-03-18T23:51:59.328Z,98445.50
2018-03-18T23:54:26.872Z,98443.70
2018-03-18T23:56:54.457Z,98445.86
2018-03-18T23:59:22.551Z,98449.27
